createdAt,value
2023-11-23T00:00:37.526Z,59.03
2023-11-23T00:01:41.447Z,58.95
2023-11-23T00:02:47.991Z,58.90
2023-11-23T00:03:52.011Z,59.14
2023-11-23T00:04:58.434Z,59.24
2023-11-23T00:06:03.215Z,59.13
2023-11-23T00:07:09.804Z,58.99
2023-11-23T00:08:16.199Z,59.01
2023-11-23T00:09:22.634Z,58.89
2023-11-23T00:10:26.431Z,58.85
2023-11-23T00:11:35.087Z,58.91
2023-11-23T00:12:42.489Z,58.88
2023-11-23T00:13:50.867Z,58.91
2023-11-23T00:14:58.034Z,58.82
2023-11-23T00:16:04.528Z,58.83
2023-11-23T00:17:10.993Z,58.85
2023-11-23T00:18:17.720Z,58.82
2023-11-23T00:19:21.646Z,58.77
2023-11-23T00:20:28.117Z,58.83
2023-11-23T00:21:34.477Z,58.65
2023-11-23T00:22:43.217Z,58.70
2023-11-23T00:23:47.107Z,58.70
2023-11-23T00:24:57.604Z,58.81
2023-11-23T00:26:04.616Z,58.78
2023-11-23T00:27:11.117Z,58.76
2023-11-23T00:28:19.920Z,58.69
2023-11-23T00:29:29.204Z,58.72
2023-11-23T00:30:35.301Z,58.59
2023-11-23T00:31:39.261Z,58.70
2023-11-23T00:32:45.804Z,58.73
2023-11-23T00:33:52.863Z,58.74
2023-11-23T00:35:01.474Z,58.82
2023-11-23T00:36:06.598Z,58.81
2023-11-23T00:37:13.133Z,58.98
2023-11-23T00:38:20.280Z,58.97
2023-11-23T00:39:30.059Z,58.99
2023-11-23T00:40:36.167Z,59.07
2023-11-23T00:41:40.057Z,59.04
2023-11-23T00:42:48.769Z,59.13
2023-11-23T00:43:55.321Z,59.23
2023-11-23T00:45:01.857Z,59.32
2023-11-23T00:46:06.658Z,59.29
2023-11-23T00:47:13.141Z,59.26
2023-11-23T00:48:17.220Z,59.39
2023-11-23T00:49:26.133Z,59.31
2023-11-23T00:50:33.352Z,59.32
2023-11-23T00:51:40.527Z,59.41
2023-11-23T00:52:44.418Z,59.55
2023-11-23T00:53:53.155Z,59.62
2023-11-23T00:54:58.389Z,59.52
2023-11-23T00:56:07.775Z,59.54
2023-11-23T00:57:12.649Z,59.43
2023-11-23T00:58:20.397Z,59.42
2023-11-23T00:59:25.949Z,59.38
2023-11-23T01:00:32.496Z,59.43
2023-11-23T01:01:36.587Z,59.50
2023-11-23T01:02:43.715Z,59.46
2023-11-23T01:03:47.779Z,59.37
2023-11-23T01:04:56.464Z,59.41
2023-11-23T01:06:03.028Z,59.33
2023-11-23T01:07:09.561Z,59.36
2023-11-23T01:08:15.936Z,59.32
2023-11-23T01:09:25.435Z,59.24
2023-11-23T01:10:29.314Z,59.21
2023-11-23T01:11:35.781Z,59.19
2023-11-23T01:12:39.685Z,59.15
2023-11-23T01:13:48.712Z,59.09
2023-11-23T01:14:58.418Z,59.03
2023-11-23T01:16:04.908Z,59.08
2023-11-23T01:17:11.016Z,59.06
2023-11-23T01:18:17.526Z,58.99
2023-11-23T01:19:23.791Z,58.92
2023-11-23T01:20:30.308Z,58.99
2023-11-23T01:21:36.687Z,59.00
2023-11-23T01:22:43.740Z,58.89
2023-11-23T01:23:47.595Z,58.78
2023-11-23T01:24:56.338Z,58.85
2023-11-23T01:26:02.558Z,58.82
2023-11-23T01:27:12.155Z,58.79
2023-11-23T01:28:16.233Z,58.69
2023-11-23T01:29:24.985Z,58.70
2023-11-23T01:30:31.442Z,58.60
2023-11-23T01:31:40.152Z,58.59
2023-11-23T01:32:46.433Z,58.65
2023-11-23T01:33:53.135Z,58.64
2023-11-23T01:34:57.158Z,58.56
2023-11-23T01:36:03.655Z,58.63
2023-11-23T01:37:07.642Z,58.69
2023-11-23T01:38:14.139Z,58.73
2023-11-23T01:39:18.793Z,58.73
2023-11-23T01:40:25.276Z,58.67
2023-11-23T01:41:29.183Z,58.60
2023-11-23T01:42:36.464Z,58.65
2023-11-23T01:43:46.630Z,58.70
2023-11-23T01:44:53.184Z,58.72
2023-11-23T01:45:59.889Z,58.56
2023-11-23T01:47:07.863Z,58.68
2023-11-23T01:48:12.426Z,58.67
2023-11-23T01:49:22.290Z,58.72
2023-11-23T01:50:27.165Z,58.73
2023-11-23T01:51:35.051Z,58.80
2023-11-23T01:52:39.173Z,58.76
2023-11-23T01:53:48.410Z,58.70
2023-11-23T01:54:54.555Z,58.75
2023-11-23T01:56:04.693Z,58.78
2023-11-23T01:57:09.966Z,58.82
2023-11-23T01:58:21.780Z,58.88
2023-11-23T01:59:29.599Z,58.94
2023-11-23T02:00:38.158Z,58.83
2023-11-23T02:01:45.296Z,58.78
2023-11-23T02:02:52.408Z,58.80
2023-11-23T02:03:59.750Z,58.71
2023-11-23T02:05:09.697Z,58.76
2023-11-23T02:06:13.866Z,58.72
2023-11-23T02:07:22.864Z,58.69
2023-11-23T02:08:27.580Z,58.72
2023-11-23T02:09:34.681Z,58.73
2023-11-23T02:10:41.381Z,58.76
2023-11-23T02:11:50.766Z,58.75
2023-11-23T02:12:57.285Z,58.72
2023-11-23T02:14:04.791Z,58.75
2023-11-23T02:15:11.630Z,58.72
2023-11-23T02:16:21.239Z,58.75
2023-11-23T02:17:32.020Z,58.70
2023-11-23T02:18:41.810Z,58.66
2023-11-23T02:19:47.183Z,58.74
2023-11-23T02:20:53.707Z,58.67
2023-11-23T02:21:57.672Z,58.81
2023-11-23T02:23:06.859Z,58.88
2023-11-23T02:24:14.030Z,58.93
2023-11-23T02:25:22.707Z,58.99
2023-11-23T02:26:26.575Z,58.96
2023-11-23T02:27:33.880Z,58.91
2023-11-23T02:28:42.586Z,58.91
2023-11-23T02:29:49.426Z,58.86
2023-11-23T02:30:55.901Z,58.84
2023-11-23T02:32:00.237Z,58.92
2023-11-23T02:33:13.512Z,58.90
2023-11-23T02:34:17.361Z,58.92
2023-11-23T02:35:24.338Z,58.99
2023-11-23T02:36:28.078Z,59.01
2023-11-23T02:37:33.787Z,59.04
2023-11-23T02:38:39.896Z,58.99
2023-11-23T02:39:49.703Z,59.05
2023-11-23T02:40:53.566Z,59.06
2023-11-23T02:41:58.529Z,59.06
2023-11-23T02:43:08.496Z,59.08
2023-11-23T02:44:15.381Z,59.09
2023-11-23T02:45:24.174Z,59.10
2023-11-23T02:46:30.494Z,59.07
2023-11-23T02:47:37.126Z,59.06
2023-11-23T02:48:41.204Z,59.00
2023-11-23T02:49:47.784Z,58.99
2023-11-23T02:50:52.094Z,58.91
2023-11-23T02:51:58.768Z,58.94
2023-11-23T02:53:05.229Z,58.95
2023-11-23T02:54:14.230Z,58.94
2023-11-23T02:55:21.209Z,59.02
2023-11-23T02:56:30.889Z,59.07
2023-11-23T02:57:37.162Z,59.07
2023-11-23T02:58:43.719Z,59.10
2023-11-23T02:59:47.609Z,59.12
2023-11-23T03:00:55.081Z,59.17
2023-11-23T03:02:01.491Z,59.19
2023-11-23T03:03:10.671Z,59.25
2023-11-23T03:04:17.198Z,59.25
2023-11-23T03:05:24.133Z,59.39
2023-11-23T03:06:31.564Z,59.36
2023-11-23T03:07:37.996Z,59.41
2023-11-23T03:08:42.273Z,59.42
2023-11-23T03:09:51.313Z,59.40
2023-11-23T03:11:00.888Z,59.51
2023-11-23T03:12:09.033Z,59.51
2023-11-23T03:13:12.656Z,59.47
2023-11-23T03:14:19.152Z,59.54
2023-11-23T03:15:23.223Z,59.47
2023-11-23T03:16:29.705Z,59.52
2023-11-23T03:17:35.831Z,59.61
2023-11-23T03:18:42.475Z,59.81
2023-11-23T03:19:46.437Z,59.84
2023-11-23T03:20:55.193Z,59.80
2023-11-23T03:22:01.601Z,59.74
2023-11-23T03:23:10.018Z,59.91
2023-11-23T03:24:16.208Z,59.87
2023-11-23T03:25:22.701Z,59.85
2023-11-23T03:26:29.165Z,59.87
2023-11-23T03:27:38.154Z,60.02
2023-11-23T03:28:42.050Z,60.00
2023-11-23T03:29:48.566Z,59.91
2023-11-23T03:30:52.741Z,60.04
2023-11-23T03:32:02.444Z,59.98
2023-11-23T03:33:06.414Z,60.00
2023-11-23T03:34:18.302Z,59.93
2023-11-23T03:35:22.200Z,60.06
2023-11-23T03:36:28.761Z,60.23
2023-11-23T03:37:34.989Z,60.24
2023-11-23T03:38:41.995Z,60.21
2023-11-23T03:39:46.737Z,60.34
2023-11-23T03:40:53.268Z,60.54
2023-11-23T03:41:59.765Z,60.51
2023-11-23T03:43:09.069Z,60.72
2023-11-23T03:44:13.443Z,60.68
2023-11-23T03:45:19.944Z,60.94
2023-11-23T03:46:23.931Z,60.87
2023-11-23T03:47:30.652Z,61.01
2023-11-23T03:48:36.841Z,60.97
2023-11-23T03:49:43.373Z,60.84
2023-11-23T03:50:50.272Z,60.85
2023-11-23T03:51:59.846Z,60.84
2023-11-23T03:53:06.178Z,61.00
2023-11-23T03:54:12.166Z,60.92
2023-11-23T03:55:16.407Z,61.05
2023-11-23T03:56:25.526Z,61.32
2023-11-23T03:57:32.016Z,61.32
2023-11-23T03:58:38.707Z,61.49
2023-11-23T03:59:42.631Z,61.60
2023-11-23T04:00:51.439Z,61.57
2023-11-23T04:01:58.255Z,61.56
2023-11-23T04:03:12.330Z,61.74
2023-11-23T04:04:16.670Z,61.76
2023-11-23T04:05:26.820Z,61.66
2023-11-23T04:06:30.845Z,61.73
2023-11-23T04:07:39.653Z,61.77
2023-11-23T04:08:46.188Z,61.80
2023-11-23T04:09:55.213Z,62.12
2023-11-23T04:11:01.304Z,62.06
2023-11-23T04:12:11.078Z,62.07
2023-11-23T04:13:17.732Z,62.24
2023-11-23T04:14:21.711Z,62.14
2023-11-23T04:15:28.348Z,62.15
2023-11-23T04:16:32.222Z,62.02
2023-11-23T04:17:41.075Z,62.04
2023-11-23T04:18:46.152Z,62.07
2023-11-23T04:19:52.761Z,61.98
2023-11-23T04:20:56.786Z,62.19
2023-11-23T04:22:08.070Z,62.29
2023-11-23T04:23:12.868Z,62.27
2023-11-23T04:24:21.996Z,62.41
2023-11-23T04:25:26.207Z,62.54
2023-11-23T04:26:33.048Z,62.78
2023-11-23T04:27:37.472Z,63.01
2023-11-23T04:28:46.987Z,62.94
2023-11-23T04:29:52.104Z,62.94
2023-11-23T04:31:01.210Z,63.72
2023-11-23T04:32:07.640Z,63.71
2023-11-23T04:33:14.142Z,63.34
2023-11-23T04:34:20.328Z,63.44
2023-11-23T04:35:26.963Z,63.44
2023-11-23T04:36:33.471Z,63.53
2023-11-23T04:37:39.138Z,63.57
2023-11-23T04:38:45.508Z,63.78
2023-11-23T04:39:48.881Z,63.62
2023-11-23T04:40:57.779Z,64.31
2023-11-23T04:42:01.674Z,64.20
2023-11-23T04:43:10.444Z,64.47
2023-11-23T04:44:19.630Z,64.02
2023-11-23T04:45:26.429Z,64.14
2023-11-23T04:46:39.245Z,64.12
2023-11-23T04:47:45.448Z,64.08
2023-11-23T04:48:52.163Z,64.23
2023-11-23T04:49:56.084Z,64.34
2023-11-23T04:51:02.598Z,64.31
2023-11-23T04:52:07.310Z,64.20
2023-11-23T04:53:16.012Z,64.40
2023-11-23T04:54:22.440Z,64.66
2023-11-23T04:55:29.315Z,64.55
2023-11-23T04:56:33.849Z,64.68
2023-11-23T04:57:40.316Z,64.48
2023-11-23T04:58:44.271Z,64.51
2023-11-23T04:59:54.323Z,65.12
2023-11-23T05:01:01.845Z,65.00
2023-11-23T05:02:12.108Z,64.89
2023-11-23T05:03:16.133Z,64.83
2023-11-23T05:04:22.745Z,64.74
2023-11-23T05:05:26.638Z,65.18
2023-11-23T05:06:33.225Z,65.39
2023-11-23T05:07:37.071Z,65.58
2023-11-23T05:08:47.394Z,65.42
2023-11-23T05:09:52.713Z,65.50
2023-11-23T05:11:02.567Z,65.21
2023-11-23T05:12:07.351Z,65.48
2023-11-23T05:13:14.074Z,65.87
2023-11-23T05:14:18.363Z,65.68
2023-11-23T05:15:28.888Z,65.97
2023-11-23T05:16:35.560Z,66.17
2023-11-23T05:17:39.715Z,66.33
2023-11-23T05:18:49.322Z,65.92
2023-11-23T05:19:55.389Z,66.22
2023-11-23T05:21:04.792Z,66.08
2023-11-23T05:22:08.726Z,66.22
2023-11-23T05:23:15.322Z,65.60
2023-11-23T05:24:21.561Z,65.61
2023-11-23T05:25:27.642Z,65.72
2023-11-23T05:26:31.000Z,66.04
2023-11-23T05:27:37.486Z,66.12
2023-11-23T05:28:43.629Z,66.18
2023-11-23T05:29:53.319Z,66.68
2023-11-23T05:30:59.958Z,66.66
2023-11-23T05:32:10.305Z,66.57
2023-11-23T05:33:14.390Z,66.47
2023-11-23T05:34:23.205Z,66.32
2023-11-23T05:35:27.156Z,66.74
2023-11-23T05:36:36.835Z,66.66
2023-11-23T05:37:42.994Z,67.11
2023-11-23T05:38:49.855Z,67.34
2023-11-23T05:39:55.878Z,67.36
2023-11-23T05:41:02.474Z,67.30
2023-11-23T05:42:10.739Z,67.64
2023-11-23T05:43:15.376Z,67.40
2023-11-23T05:44:24.098Z,67.45
2023-11-23T05:45:32.074Z,67.39
2023-11-23T05:46:41.653Z,67.51
2023-11-23T05:47:48.262Z,67.65
2023-11-23T05:48:54.729Z,67.87
2023-11-23T05:50:03.908Z,67.92
2023-11-23T05:51:08.006Z,67.81
2023-11-23T05:52:14.784Z,67.39
2023-11-23T05:53:18.636Z,67.79
2023-11-23T05:54:27.629Z,68.24
2023-11-23T05:55:33.841Z,67.97
2023-11-23T05:56:42.917Z,68.33
2023-11-23T05:57:49.769Z,68.49
2023-11-23T05:58:58.591Z,68.42
2023-11-23T06:00:07.409Z,68.64
2023-11-23T06:01:13.887Z,69.43
2023-11-23T06:02:24.001Z,69.73
2023-11-23T06:03:32.774Z,70.19
2023-11-23T06:04:36.783Z,70.17
2023-11-23T06:05:43.475Z,70.09
2023-11-23T06:06:47.465Z,70.09
2023-11-23T06:07:54.702Z,69.62
2023-11-23T06:08:58.721Z,69.56
2023-11-23T06:10:06.471Z,69.77
2023-11-23T06:11:10.309Z,69.79
2023-11-23T06:12:17.001Z,69.78
2023-11-23T06:13:20.900Z,69.49
2023-11-23T06:14:29.687Z,69.71
2023-11-23T06:15:33.836Z,69.79
2023-11-23T06:16:42.929Z,70.49
2023-11-23T06:18:04.394Z,70.84
2023-11-23T06:19:17.676Z,71.09
2023-11-23T06:20:22.096Z,71.40
2023-11-23T06:21:30.295Z,71.16
2023-11-23T06:22:34.170Z,71.20
2023-11-23T06:23:43.584Z,70.89
2023-11-23T06:24:47.535Z,70.85
2023-11-23T06:25:53.433Z,70.43
2023-11-23T06:26:59.616Z,70.55
2023-11-23T06:29:13.011Z,71.30
2023-11-23T06:30:19.263Z,72.47
2023-11-23T06:31:25.899Z,72.30
2023-11-23T06:32:29.747Z,72.11
2023-11-23T06:33:38.928Z,72.04
2023-11-23T06:34:45.186Z,72.12
2023-11-23T06:35:51.753Z,71.84
2023-11-23T06:36:55.719Z,72.16
2023-11-23T06:38:02.199Z,72.32
2023-11-23T06:39:06.320Z,72.60
2023-11-23T06:40:14.434Z,71.89
2023-11-23T06:41:20.157Z,72.41
2023-11-23T06:42:26.769Z,71.82
2023-11-23T06:43:30.872Z,71.55
2023-11-23T06:44:37.470Z,71.97
2023-11-23T06:45:43.897Z,72.59
2023-11-23T06:46:50.614Z,72.92
2023-11-23T06:47:59.262Z,73.06
2023-11-23T06:49:08.473Z,73.42
2023-11-23T06:50:22.021Z,72.42
2023-11-23T06:51:28.555Z,72.99
2023-11-23T06:52:32.461Z,73.72
2023-11-23T06:53:45.038Z,73.42
2023-11-23T06:54:51.892Z,72.90
2023-11-23T06:56:03.660Z,73.21
2023-11-23T06:57:09.370Z,72.55
2023-11-23T06:58:18.059Z,73.12
2023-11-23T06:59:22.587Z,73.13
2023-11-23T07:00:29.121Z,73.29
2023-11-23T07:01:33.976Z,73.53
2023-11-23T07:02:40.552Z,73.83
2023-11-23T07:03:45.758Z,73.63
2023-11-23T07:04:56.003Z,74.31
2023-11-23T07:05:59.936Z,74.77
2023-11-23T07:07:08.106Z,74.60
2023-11-23T07:08:12.117Z,74.59
2023-11-23T07:09:19.112Z,74.79
2023-11-23T07:10:23.827Z,74.42
2023-11-23T07:11:32.973Z,75.03
2023-11-23T07:12:36.955Z,74.81
2023-11-23T07:13:43.480Z,74.44
2023-11-23T07:14:47.590Z,74.02
2023-11-23T07:15:56.697Z,74.44
2023-11-23T07:17:00.544Z,74.96
2023-11-23T07:18:07.358Z,74.71
2023-11-23T07:19:11.981Z,74.95
2023-11-23T07:20:23.691Z,75.21
2023-11-23T07:21:30.006Z,75.16
2023-11-23T07:22:38.380Z,75.40
2023-11-23T07:23:42.556Z,75.66
2023-11-23T07:24:49.653Z,75.39
2023-11-23T07:25:54.221Z,75.16
2023-11-23T07:27:00.782Z,75.38
2023-11-23T07:28:05.632Z,75.49
2023-11-23T07:29:12.125Z,75.46
2023-11-23T07:30:17.242Z,75.60
2023-11-23T07:31:23.846Z,75.86
2023-11-23T07:32:30.339Z,75.93
2023-11-23T07:33:38.455Z,75.85
2023-11-23T07:34:45.240Z,75.40
2023-11-23T07:35:54.462Z,75.79
2023-11-23T07:37:00.307Z,75.96
2023-11-23T07:38:07.075Z,76.16
2023-11-23T07:39:12.172Z,76.67
2023-11-23T07:40:19.157Z,76.70
2023-11-23T07:41:25.400Z,76.15
2023-11-23T07:42:31.981Z,76.21
2023-11-23T07:43:36.041Z,76.43
2023-11-23T07:44:44.994Z,76.35
2023-11-23T07:45:51.862Z,76.24
2023-11-23T07:46:58.513Z,75.81
2023-11-23T07:48:10.510Z,76.07
2023-11-23T07:49:18.084Z,76.09
2023-11-23T07:50:21.121Z,75.81
2023-11-23T07:51:30.301Z,75.63
2023-11-23T07:52:34.235Z,75.49
2023-11-23T07:53:40.702Z,76.05
2023-11-23T07:54:45.376Z,76.18
2023-11-23T07:55:49.942Z,76.36
2023-11-23T07:56:56.426Z,76.30
2023-11-23T07:58:01.204Z,76.23
2023-11-23T07:59:07.790Z,75.94
2023-11-23T08:00:14.899Z,76.38
2023-11-23T08:01:21.596Z,76.33
2023-11-23T08:02:25.603Z,76.11
2023-11-23T08:03:33.601Z,75.92
2023-11-23T08:04:39.876Z,75.77
2023-11-23T08:05:47.331Z,75.71
2023-11-23T08:06:53.881Z,75.61
2023-11-23T08:08:02.639Z,75.66
2023-11-23T08:09:11.527Z,75.79
2023-11-23T08:10:18.162Z,76.25
2023-11-23T08:11:25.122Z,76.07
2023-11-23T08:12:33.456Z,75.87
2023-11-23T08:13:37.704Z,75.65
2023-11-23T08:14:46.015Z,76.08
2023-11-23T08:15:52.871Z,75.94
2023-11-23T08:17:03.800Z,76.07
2023-11-23T08:18:10.555Z,76.41
2023-11-23T08:19:19.563Z,76.10
2023-11-23T08:20:27.935Z,76.25
2023-11-23T08:21:37.599Z,75.88
2023-11-23T08:22:47.390Z,76.19
2023-11-23T08:23:53.953Z,76.12
2023-11-23T08:25:00.324Z,76.28
2023-11-23T08:26:07.493Z,76.00
2023-11-23T08:27:13.878Z,75.91
2023-11-23T08:28:22.450Z,75.70
2023-11-23T08:29:26.360Z,75.66
2023-11-23T08:30:35.426Z,75.47
2023-11-23T08:31:48.282Z,75.94
2023-11-23T08:32:54.834Z,76.19
2023-11-23T08:33:58.969Z,75.92
2023-11-23T08:35:10.187Z,75.99
2023-11-23T08:36:16.541Z,76.18
2023-11-23T08:37:23.105Z,76.23
2023-11-23T08:38:30.503Z,75.56
2023-11-23T08:39:37.076Z,76.35
2023-11-23T08:40:41.192Z,76.74
2023-11-23T08:41:48.358Z,76.51
2023-11-23T08:42:52.237Z,76.95
2023-11-23T08:44:05.409Z,80.22
2023-11-23T08:45:12.575Z,78.07
2023-11-23T08:46:21.374Z,77.79
2023-11-23T08:47:25.478Z,78.11
2023-11-23T08:48:34.461Z,76.70
2023-11-23T08:49:38.409Z,76.59
2023-11-23T08:50:47.957Z,76.23
2023-11-23T08:51:50.946Z,75.20
2023-11-23T08:53:01.879Z,74.87
2023-11-23T08:54:09.613Z,74.67
2023-11-23T08:55:16.313Z,74.64
2023-11-23T08:56:20.232Z,74.82
2023-11-23T08:57:26.769Z,75.31
2023-11-23T08:58:32.902Z,75.60
2023-11-23T08:59:39.445Z,75.20
2023-11-23T09:00:42.929Z,75.10
2023-11-23T09:01:57.159Z,75.31
2023-11-23T09:03:06.345Z,75.01
2023-11-23T09:04:15.270Z,75.50
2023-11-23T09:05:22.803Z,75.53
2023-11-23T09:06:31.791Z,75.52
2023-11-23T09:07:40.426Z,75.27
2023-11-23T09:08:47.070Z,75.21
2023-11-23T09:09:53.569Z,75.13
2023-11-23T09:11:02.506Z,75.25
2023-11-23T09:12:08.470Z,75.34
2023-11-23T09:13:16.491Z,75.81
2023-11-23T09:14:22.314Z,75.76
2023-11-23T09:15:35.168Z,75.69
2023-11-23T09:16:42.766Z,75.28
2023-11-23T09:17:52.580Z,75.49
2023-11-23T09:18:58.854Z,75.44
2023-11-23T09:20:09.744Z,75.48
2023-11-23T09:21:14.100Z,75.40
2023-11-23T09:22:20.632Z,75.51
2023-11-23T09:23:24.758Z,75.80
2023-11-23T09:24:31.952Z,75.67
2023-11-23T09:25:39.828Z,75.63
2023-11-23T09:26:47.859Z,75.51
2023-11-23T09:27:51.797Z,75.38
2023-11-23T09:28:59.016Z,75.41
2023-11-23T09:30:04.807Z,75.41
2023-11-23T09:31:14.527Z,75.58
2023-11-23T09:32:20.594Z,75.51
2023-11-23T09:33:28.033Z,75.47
2023-11-23T09:34:34.232Z,75.41
2023-11-23T09:35:43.495Z,75.16
2023-11-23T09:36:49.459Z,75.38
2023-11-23T09:37:58.933Z,75.41
2023-11-23T09:39:02.983Z,75.30
2023-11-23T09:40:20.461Z,75.40
2023-11-23T09:41:36.071Z,75.46
2023-11-23T09:42:42.885Z,75.43
2023-11-23T09:43:48.902Z,75.74
2023-11-23T09:45:01.824Z,75.71
2023-11-23T09:46:09.196Z,75.67
2023-11-23T09:47:20.494Z,75.66
2023-11-23T09:48:29.712Z,75.66
2023-11-23T09:49:38.445Z,75.43
2023-11-23T09:50:42.887Z,75.87
2023-11-23T09:51:56.836Z,75.73
2023-11-23T09:53:05.597Z,75.65
2023-11-23T09:54:22.458Z,75.24
2023-11-23T09:55:29.126Z,75.25
2023-11-23T09:56:40.744Z,75.65
2023-11-23T09:57:49.435Z,75.57
2023-11-23T09:58:53.515Z,75.36
2023-11-23T10:00:07.085Z,75.56
2023-11-23T10:01:13.442Z,75.45
2023-11-23T10:02:26.246Z,75.42
2023-11-23T10:03:33.724Z,75.46
2023-11-23T10:04:40.290Z,75.50
2023-11-23T10:05:45.178Z,75.34
2023-11-23T10:06:51.638Z,75.31
2023-11-23T10:07:55.957Z,75.31
2023-11-23T10:09:02.851Z,75.35
2023-11-23T10:10:09.065Z,75.46
2023-11-23T10:11:18.267Z,75.37
2023-11-23T10:12:29.159Z,75.26
2023-11-23T10:13:35.487Z,75.49
2023-11-23T10:14:40.922Z,75.51
2023-11-23T10:15:48.543Z,75.53
2023-11-23T10:16:52.681Z,75.79
2023-11-23T10:18:02.556Z,75.67
2023-11-23T10:19:09.961Z,75.69
2023-11-23T10:20:19.025Z,76.17
2023-11-23T10:21:23.097Z,75.85
2023-11-23T10:22:27.281Z,76.11
2023-11-23T10:23:33.140Z,76.11
2023-11-23T10:24:48.261Z,76.10
2023-11-23T10:25:57.674Z,76.10
2023-11-23T10:27:06.636Z,76.28
2023-11-23T10:28:19.449Z,76.31
2023-11-23T10:29:29.884Z,76.24
2023-11-23T10:30:39.365Z,76.27
2023-11-23T10:31:43.368Z,76.44
2023-11-23T10:32:52.915Z,76.85
2023-11-23T10:33:56.968Z,76.50
2023-11-23T10:35:12.566Z,76.62
2023-11-23T10:36:18.263Z,76.66
2023-11-23T10:37:29.224Z,76.50
2023-11-23T10:38:43.741Z,76.76
2023-11-23T10:39:53.512Z,76.36
2023-11-23T10:41:01.510Z,76.79
2023-11-23T10:42:09.716Z,76.81
2023-11-23T10:43:19.368Z,76.94
2023-11-23T10:44:27.918Z,76.64
2023-11-23T10:45:34.830Z,76.69
2023-11-23T10:46:45.653Z,76.53
2023-11-23T10:47:55.708Z,77.14
2023-11-23T10:49:03.394Z,76.98
2023-11-23T10:50:11.322Z,77.10
2023-11-23T10:51:21.550Z,77.30
2023-11-23T10:52:29.632Z,77.38
2023-11-23T10:53:43.821Z,77.58
2023-11-23T10:54:51.180Z,77.98
2023-11-23T10:55:58.729Z,78.06
2023-11-23T10:57:10.719Z,77.84
2023-11-23T10:58:25.223Z,78.03
2023-11-23T10:59:31.127Z,78.15
2023-11-23T11:00:44.118Z,78.43
2023-11-23T11:01:51.751Z,78.12
2023-11-23T11:03:08.028Z,78.15
2023-11-23T11:04:16.587Z,78.09
2023-11-23T11:05:32.325Z,78.18
2023-11-23T11:06:40.333Z,78.18
2023-11-23T11:08:01.580Z,78.28
2023-11-23T11:09:15.660Z,78.74
2023-11-23T11:10:22.604Z,78.63
2023-11-23T11:11:28.854Z,78.73
2023-11-23T11:12:42.127Z,78.62
2023-11-23T11:13:49.542Z,78.30
2023-11-23T11:14:56.191Z,78.49
2023-11-23T11:16:05.062Z,78.54
2023-11-23T11:17:13.912Z,78.52
2023-11-23T11:18:22.981Z,78.19
2023-11-23T11:19:29.568Z,78.44
2023-11-23T11:20:33.277Z,78.41
2023-11-23T11:21:49.115Z,78.53
2023-11-23T11:22:57.153Z,78.42
2023-11-23T11:24:03.663Z,78.40
2023-11-23T11:25:09.148Z,78.72
2023-11-23T11:26:22.180Z,78.78
2023-11-23T11:27:30.332Z,78.63
2023-11-23T11:28:34.774Z,78.72
2023-11-23T11:29:53.579Z,78.74
2023-11-23T11:31:06.341Z,78.28
2023-11-23T11:32:15.550Z,78.34
2023-11-23T11:33:25.351Z,78.99
2023-11-23T11:34:38.026Z,78.71
2023-11-23T11:35:46.554Z,78.75
2023-11-23T11:37:01.333Z,78.96
2023-11-23T11:38:14.656Z,79.16
2023-11-23T11:39:23.914Z,79.24
2023-11-23T11:40:39.306Z,79.15
2023-11-23T11:41:49.865Z,78.94
2023-11-23T11:42:57.367Z,78.83
2023-11-23T11:44:05.784Z,79.11
2023-11-23T11:45:16.255Z,78.80
2023-11-23T11:46:23.536Z,79.24
2023-11-23T11:47:29.980Z,79.19
2023-11-23T11:48:37.432Z,79.22
2023-11-23T11:49:40.729Z,79.12
2023-11-23T11:50:47.277Z,79.44
2023-11-23T11:51:51.758Z,79.16
2023-11-23T11:53:00.491Z,79.27
2023-11-23T11:54:08.432Z,78.98
2023-11-23T11:55:15.350Z,78.85
2023-11-23T11:56:23.412Z,78.82
2023-11-23T11:57:29.901Z,78.82
2023-11-23T11:58:36.387Z,79.18
2023-11-23T11:59:45.339Z,79.44
2023-11-23T12:00:54.638Z,79.17
2023-11-23T12:01:58.982Z,79.17
2023-11-23T12:03:05.951Z,78.90
2023-11-23T12:04:10.028Z,78.78
2023-11-23T12:05:16.933Z,78.77
2023-11-23T12:06:24.227Z,79.51
2023-11-23T12:07:30.730Z,79.48
2023-11-23T12:08:37.898Z,79.22
2023-11-23T12:09:47.073Z,79.76
2023-11-23T12:10:51.353Z,79.09
2023-11-23T12:12:11.992Z,79.20
2023-11-23T12:13:24.846Z,79.51
2023-11-23T12:14:36.815Z,79.39
2023-11-23T12:15:41.866Z,79.83
2023-11-23T12:16:51.573Z,79.88
2023-11-23T12:17:59.504Z,79.79
2023-11-23T12:19:20.891Z,79.84
2023-11-23T12:20:37.474Z,79.62
2023-11-23T12:21:44.079Z,79.56
2023-11-23T12:22:47.797Z,79.82
2023-11-23T12:23:56.230Z,79.86
2023-11-23T12:25:07.071Z,79.24
2023-11-23T12:26:17.135Z,79.33
2023-11-23T12:27:22.236Z,79.55
2023-11-23T12:28:31.495Z,79.61
2023-11-23T12:29:40.731Z,79.31
2023-11-23T12:30:48.099Z,79.94
2023-11-23T12:31:54.686Z,79.88
2023-11-23T12:33:01.344Z,79.95
2023-11-23T12:34:09.243Z,79.79
2023-11-23T12:35:15.805Z,80.09
2023-11-23T12:36:20.434Z,80.20
2023-11-23T12:37:31.116Z,80.43
2023-11-23T12:38:35.001Z,80.48
2023-11-23T12:39:44.676Z,80.39
2023-11-23T12:40:50.965Z,80.31
2023-11-23T12:42:01.123Z,80.46
2023-11-23T12:43:07.614Z,80.45
2023-11-23T12:44:14.386Z,80.78
2023-11-23T12:45:20.650Z,81.28
2023-11-23T12:46:27.220Z,81.28
2023-11-23T12:47:36.866Z,81.00
2023-11-23T12:48:46.618Z,80.95
2023-11-23T12:49:50.886Z,81.15
2023-11-23T12:51:00.287Z,81.06
2023-11-23T12:52:10.379Z,81.00
2023-11-23T12:53:46.750Z,80.94
2023-11-23T12:55:08.582Z,80.70
2023-11-23T12:56:14.384Z,80.75
2023-11-23T12:57:18.457Z,80.57
2023-11-23T12:58:27.682Z,80.51
2023-11-23T12:59:32.143Z,80.48
2023-11-23T13:00:40.357Z,80.61
2023-11-23T13:01:44.289Z,80.74
2023-11-23T13:02:55.753Z,80.67
2023-11-23T13:04:09.668Z,80.48
2023-11-23T13:05:19.220Z,80.38
2023-11-23T13:06:27.285Z,80.33
2023-11-23T13:07:33.810Z,80.28
2023-11-23T13:08:37.716Z,80.28
2023-11-23T13:09:49.897Z,80.30
2023-11-23T13:10:53.749Z,80.18
2023-11-23T13:12:05.316Z,79.91
2023-11-23T13:13:10.124Z,79.95
2023-11-23T13:14:21.714Z,79.85
2023-11-23T13:15:28.385Z,79.94
2023-11-23T13:16:35.985Z,79.94
2023-11-23T13:17:45.379Z,79.66
2023-11-23T13:19:11.240Z,79.56
2023-11-23T13:20:25.468Z,79.37
2023-11-23T13:21:32.176Z,79.50
2023-11-23T13:22:36.633Z,79.32
2023-11-23T13:23:49.785Z,79.34
2023-11-23T13:24:59.334Z,79.22
2023-11-23T13:26:09.034Z,79.20
2023-11-23T13:27:15.684Z,79.01
2023-11-23T13:28:25.830Z,79.01
2023-11-23T13:29:29.712Z,78.94
2023-11-23T13:30:36.208Z,78.93
2023-11-23T13:31:40.234Z,78.91
2023-11-23T13:32:47.518Z,78.97
2023-11-23T13:33:54.264Z,78.83
2023-11-23T13:35:00.381Z,78.79
2023-11-23T13:36:08.903Z,78.78
2023-11-23T13:37:13.255Z,78.71
2023-11-23T13:38:17.183Z,79.00
2023-11-23T13:39:23.748Z,78.88
2023-11-23T13:40:28.660Z,78.81
2023-11-23T13:41:35.208Z,78.71
2023-11-23T13:42:42.573Z,78.76
2023-11-23T13:43:51.709Z,78.67
2023-11-23T13:44:56.222Z,78.63
2023-11-23T13:46:02.749Z,78.47
2023-11-23T13:47:10.186Z,78.57
2023-11-23T13:48:17.607Z,78.35
2023-11-23T13:49:26.290Z,78.30
2023-11-23T13:50:35.828Z,78.36
2023-11-23T13:51:40.196Z,78.25
2023-11-23T13:52:50.244Z,78.36
2023-11-23T13:53:54.256Z,78.33
2023-11-23T13:55:00.703Z,78.37
2023-11-23T13:56:05.214Z,78.23
2023-11-23T13:57:14.208Z,78.47
2023-11-23T13:58:19.429Z,78.36
2023-11-23T13:59:26.070Z,78.34
2023-11-23T14:00:29.535Z,78.25
2023-11-23T14:01:36.190Z,78.46
2023-11-23T14:02:41.034Z,78.53
2023-11-23T14:03:47.801Z,78.45
2023-11-23T14:04:54.389Z,78.47
2023-11-23T14:06:03.011Z,78.52
2023-11-23T14:07:09.136Z,78.43
2023-11-23T14:08:19.310Z,78.41
2023-11-23T14:09:23.309Z,78.39
2023-11-23T14:10:30.530Z,78.25
2023-11-23T14:11:36.724Z,78.34
2023-11-23T14:12:42.748Z,78.40
2023-11-23T14:13:50.381Z,78.67
2023-11-23T14:14:57.188Z,78.33
2023-11-23T14:16:01.345Z,78.44
2023-11-23T14:17:14.014Z,78.39
2023-11-23T14:18:19.151Z,78.58
2023-11-23T14:19:28.047Z,78.55
2023-11-23T14:20:33.830Z,78.70
2023-11-23T14:21:41.065Z,78.73
2023-11-23T14:22:46.121Z,78.75
2023-11-23T14:23:52.743Z,78.87
2023-11-23T14:24:56.689Z,78.98
2023-11-23T14:26:05.705Z,78.98
2023-11-23T14:27:11.204Z,78.87
2023-11-23T14:28:21.768Z,78.79
2023-11-23T14:29:25.677Z,78.83